createdAt,value
2018-08-31T00:00:00.186Z,99.90
2018-08-31T00:02:47.019Z,99.90
2018-08-31T00:06:34.451Z,99.90
2018-08-31T00:09:13.806Z,99.90
2018-08-31T00:12:24.554Z,99.90
2018-08-31T00:14:52.879Z,99.90
2018-08-31T00:17:21.235Z,99.90
2018-08-31T00:19:49.578Z,99.90
2018-08-31T00:22:17.923Z,99.90
2018-08-31T00:25:01.323Z,99.90
2018-08-31T00:27:41.145Z,99.90
2018-08-31T00:30:20.847Z,99.90
2018-08-31T00:35:07.190Z,99.90
2018-08-31T00:38:44.370Z,99.90
2018-08-31T00:41:23.883Z,99.90
2018-08-31T00:44:03.799Z,99.90
2018-08-31T00:46:32.119Z,99.90
2018-08-31T00:49:01.591Z,99.90
2018-08-31T00:51:29.896Z,99.90
2018-08-31T00:53:58.205Z,99.90
2018-08-31T00:56:26.522Z,99.90
2018-08-31T00:58:54.808Z,99.90
2018-08-31T01:01:23.110Z,99.90
2018-08-31T01:03:51.395Z,99.90
2018-08-31T01:06:19.704Z,99.90
2018-08-31T01:08:48.188Z,99.90
2018-08-31T01:11:16.510Z,99.90
2018-08-31T01:13:44.813Z,99.90
2018-08-31T01:16:13.116Z,99.90
2018-08-31T01:18:41.402Z,99.90
2018-08-31T01:21:09.736Z,99.90
2018-08-31T01:23:38.018Z,99.90
2018-08-31T01:26:06.332Z,99.90
2018-08-31T01:28:34.639Z,99.90
2018-08-31T01:31:03.011Z,99.90
2018-08-31T01:33:31.292Z,99.90
2018-08-31T01:35:59.607Z,99.90
2018-08-31T01:38:27.903Z,99.90
2018-08-31T01:40:56.227Z,99.90
2018-08-31T01:43:24.562Z,99.90
2018-08-31T01:45:52.877Z,99.90
2018-08-31T01:48:21.155Z,99.90
2018-08-31T01:50:54.936Z,99.90
2018-08-31T01:53:27.651Z,99.90
2018-08-31T01:55:56.058Z,99.90
2018-08-31T01:58:24.539Z,99.90
2018-08-31T02:00:52.863Z,99.90
2018-08-31T02:03:21.139Z,99.90
2018-08-31T02:05:49.487Z,99.90
2018-08-31T02:08:17.782Z,99.90
2018-08-31T02:10:46.098Z,99.90
2018-08-31T02:13:14.466Z,99.90
2018-08-31T02:15:42.758Z,99.90
2018-08-31T02:18:11.070Z,99.90
2018-08-31T02:20:39.649Z,99.90
2018-08-31T02:23:08.035Z,99.90
2018-08-31T02:25:36.298Z,99.90
2018-08-31T02:28:04.660Z,99.90
2018-08-31T02:30:33.023Z,99.90
2018-08-31T02:33:01.372Z,99.90
2018-08-31T02:35:29.670Z,99.90
2018-08-31T02:37:58.015Z,99.90
2018-08-31T02:40:26.305Z,99.90
2018-08-31T02:42:54.616Z,99.90
2018-08-31T02:45:22.911Z,99.90
2018-08-31T02:47:51.253Z,99.90
2018-08-31T02:50:19.569Z,99.90
2018-08-31T02:52:48.158Z,99.90
2018-08-31T02:55:16.490Z,99.90
2018-08-31T02:57:44.805Z,99.90
2018-08-31T03:00:13.092Z,99.90
2018-08-31T03:02:41.509Z,99.90
2018-08-31T03:05:09.800Z,99.90
2018-08-31T03:07:38.100Z,99.90
2018-08-31T03:10:06.556Z,99.90
2018-08-31T03:12:34.994Z,99.90
2018-08-31T03:15:03.280Z,99.90
2018-08-31T03:20:06.208Z,99.90
2018-08-31T03:22:34.535Z,99.90
2018-08-31T03:25:02.813Z,99.90
2018-08-31T03:27:31.118Z,99.90
2018-08-31T03:29:59.428Z,99.90
2018-08-31T03:32:27.727Z,99.90
2018-08-31T03:34:56.039Z,99.90
2018-08-31T03:37:24.341Z,99.90
2018-08-31T03:39:52.684Z,99.90
2018-08-31T03:42:20.974Z,99.90
2018-08-31T03:44:49.310Z,99.90
2018-08-31T03:47:17.613Z,99.90
2018-08-31T03:49:45.939Z,99.90
2018-08-31T03:52:14.300Z,99.90
2018-08-31T03:54:42.654Z,99.90
2018-08-31T03:57:11.133Z,99.90
2018-08-31T03:59:39.686Z,99.90
2018-08-31T04:02:07.987Z,99.90
2018-08-31T04:04:36.456Z,99.90
2018-08-31T04:07:04.739Z,99.90
2018-08-31T04:09:33.059Z,99.90
2018-08-31T04:12:01.367Z,99.90
2018-08-31T04:14:29.674Z,99.90
2018-08-31T04:16:57.979Z,99.90
2018-08-31T04:19:26.380Z,99.90
2018-08-31T04:21:54.724Z,99.90
2018-08-31T04:24:23.035Z,99.90
2018-08-31T04:26:51.328Z,99.90
2018-08-31T04:29:19.690Z,99.90
2018-08-31T04:31:47.973Z,99.90
2018-08-31T04:34:16.392Z,99.90
2018-08-31T04:36:44.643Z,99.90
2018-08-31T04:39:13.839Z,99.90
2018-08-31T04:41:43.422Z,99.90
2018-08-31T04:44:11.744Z,99.90
2018-08-31T04:46:40.351Z,99.90
2018-08-31T04:49:08.671Z,99.90
2018-08-31T04:51:36.987Z,99.90
2018-08-31T04:54:05.299Z,99.90
2018-08-31T04:56:33.608Z,99.90
2018-08-31T04:59:02.014Z,99.90
2018-08-31T05:01:30.217Z,99.90
2018-08-31T05:03:58.508Z,99.90
2018-08-31T05:06:26.892Z,99.90
2018-08-31T05:08:55.180Z,99.90
2018-08-31T05:11:23.994Z,99.90
2018-08-31T05:13:52.298Z,99.90
2018-08-31T05:16:21.197Z,99.90
2018-08-31T05:18:49.501Z,99.90
2018-08-31T05:21:17.815Z,99.90
2018-08-31T05:23:46.133Z,99.90
2018-08-31T05:26:14.420Z,99.90
2018-08-31T05:28:42.826Z,99.90
2018-08-31T05:31:11.147Z,99.90
2018-08-31T05:33:39.476Z,99.90
2018-08-31T05:36:07.806Z,99.90
2018-08-31T05:38:36.116Z,99.90
2018-08-31T05:41:04.451Z,99.90
2018-08-31T05:43:32.766Z,99.90
2018-08-31T05:46:01.097Z,99.90
2018-08-31T05:48:29.390Z,99.90
2018-08-31T05:50:57.791Z,99.90
2018-08-31T05:53:26.093Z,99.90
2018-08-31T05:55:54.406Z,99.90
2018-08-31T05:58:22.733Z,99.90
2018-08-31T06:00:51.074Z,99.90
2018-08-31T06:03:19.379Z,99.90
2018-08-31T06:05:47.697Z,99.90
2018-08-31T06:08:15.992Z,99.90
2018-08-31T06:10:44.372Z,99.90
2018-08-31T06:13:13.031Z,99.90
2018-08-31T06:15:41.449Z,99.90
2018-08-31T06:18:10.064Z,99.90
2018-08-31T06:20:38.552Z,99.90
2018-08-31T06:23:07.016Z,99.90
2018-08-31T06:25:35.360Z,99.90
2018-08-31T06:28:03.878Z,99.90
2018-08-31T06:30:32.257Z,99.90
2018-08-31T06:33:00.588Z,99.90
2018-08-31T06:35:28.896Z,99.90
2018-08-31T06:37:57.772Z,99.90
2018-08-31T06:40:26.114Z,99.90
2018-08-31T06:42:54.447Z,99.90
2018-08-31T06:45:22.871Z,99.90
2018-08-31T06:47:51.386Z,99.90
2018-08-31T06:50:19.708Z,99.90
2018-08-31T06:52:48.099Z,99.90
2018-08-31T06:55:16.971Z,99.90
2018-08-31T06:57:45.413Z,99.90
2018-08-31T07:00:13.694Z,99.90
2018-08-31T07:02:42.001Z,99.90
2018-08-31T07:05:10.418Z,99.90
2018-08-31T07:07:39.084Z,99.90
2018-08-31T07:10:07.466Z,99.90
2018-08-31T07:12:35.859Z,99.90
2018-08-31T07:15:04.281Z,99.90
2018-08-31T07:17:32.628Z,99.90
2018-08-31T07:20:00.897Z,99.90
2018-08-31T07:22:29.247Z,99.90
2018-08-31T07:24:57.559Z,99.90
2018-08-31T07:27:25.883Z,99.90
2018-08-31T07:29:54.227Z,99.90
2018-08-31T07:32:22.580Z,99.90
2018-08-31T07:34:50.883Z,99.90
2018-08-31T07:37:19.188Z,99.90
2018-08-31T07:39:47.541Z,99.90
2018-08-31T07:42:15.894Z,99.90
2018-08-31T07:44:44.209Z,99.90
2018-08-31T07:47:12.539Z,99.90
2018-08-31T07:49:40.848Z,99.90
2018-08-31T07:52:09.159Z,99.90
2018-08-31T07:54:37.535Z,99.90
2018-08-31T07:57:06.443Z,99.90
2018-08-31T07:59:34.751Z,99.90
2018-08-31T08:02:03.342Z,99.90
2018-08-31T08:04:31.639Z,99.90
2018-08-31T08:07:00.018Z,99.90
2018-08-31T08:09:28.376Z,99.90
2018-08-31T08:11:56.727Z,99.90
2018-08-31T08:14:25.173Z,99.90
2018-08-31T08:16:53.641Z,99.90
2018-08-31T08:19:22.203Z,99.90
2018-08-31T08:21:50.651Z,99.90
2018-08-31T08:24:18.979Z,99.90
2018-08-31T08:26:47.282Z,99.90
2018-08-31T08:29:15.585Z,99.90
2018-08-31T08:31:44.036Z,99.90
2018-08-31T08:34:12.439Z,99.90
2018-08-31T08:36:40.805Z,99.90
2018-08-31T08:39:09.187Z,99.90
2018-08-31T08:41:37.562Z,99.90
2018-08-31T08:44:06.184Z,99.90
2018-08-31T08:46:34.658Z,99.90
2018-08-31T08:49:03.083Z,99.90
2018-08-31T08:51:31.483Z,99.90
2018-08-31T08:53:59.863Z,99.90
2018-08-31T08:56:28.224Z,99.90
2018-08-31T08:58:56.816Z,99.90
2018-08-31T09:01:25.222Z,99.90
2018-08-31T09:03:53.575Z,99.90
2018-08-31T09:06:22.084Z,99.90
2018-08-31T09:08:50.680Z,99.90
2018-08-31T09:11:19.044Z,99.90
2018-08-31T09:13:47.435Z,99.90
2018-08-31T09:16:15.898Z,99.90
2018-08-31T09:18:44.240Z,99.90
2018-08-31T09:21:12.703Z,99.90
2018-08-31T09:23:41.060Z,99.90
2018-08-31T09:26:11.818Z,99.90
2018-08-31T09:28:40.226Z,99.90
2018-08-31T09:31:12.569Z,99.90
2018-08-31T09:33:40.916Z,99.90
2018-08-31T09:36:09.605Z,99.90
2018-08-31T09:38:37.975Z,99.90
2018-08-31T09:41:06.672Z,99.90
2018-08-31T09:43:35.181Z,99.90
2018-08-31T09:46:04.061Z,99.90
2018-08-31T09:48:32.380Z,99.90
2018-08-31T09:51:00.678Z,99.90
2018-08-31T09:53:29.054Z,99.90
2018-08-31T09:55:57.464Z,99.90
2018-08-31T09:58:26.210Z,99.90
2018-08-31T10:01:00.151Z,99.90
2018-08-31T10:03:28.651Z,99.90
2018-08-31T10:05:57.179Z,99.90
2018-08-31T10:08:27.247Z,99.90
2018-08-31T10:10:55.657Z,99.90
2018-08-31T10:13:24.326Z,99.90
2018-08-31T10:15:52.676Z,99.90
2018-08-31T10:18:21.040Z,99.90
2018-08-31T10:20:49.416Z,99.90
2018-08-31T10:23:17.805Z,99.90
2018-08-31T10:25:46.172Z,99.90
2018-08-31T10:28:14.712Z,99.90
2018-08-31T10:30:43.035Z,99.90
2018-08-31T10:33:11.326Z,99.90
2018-08-31T10:35:39.803Z,99.90
2018-08-31T10:38:08.111Z,99.90
2018-08-31T10:40:36.435Z,99.90
2018-08-31T10:43:04.935Z,99.90
2018-08-31T10:45:33.251Z,99.90
2018-08-31T10:48:01.548Z,99.90
2018-08-31T10:50:29.859Z,99.90
2018-08-31T10:52:58.148Z,99.90
2018-08-31T10:55:26.495Z,99.90
2018-08-31T10:57:54.783Z,99.90
2018-08-31T11:00:23.145Z,99.90
2018-08-31T11:02:51.510Z,99.90
2018-08-31T11:05:19.962Z,99.90
2018-08-31T11:07:48.263Z,99.90
2018-08-31T11:10:16.619Z,99.90
2018-08-31T11:12:44.975Z,99.90
2018-08-31T11:15:13.315Z,99.90
2018-08-31T11:17:41.567Z,99.90
2018-08-31T11:20:09.916Z,99.90
2018-08-31T11:22:38.232Z,99.90
2018-08-31T11:25:06.695Z,99.90
2018-08-31T11:27:35.340Z,99.90
2018-08-31T11:30:03.676Z,99.90
2018-08-31T11:32:31.988Z,99.90
2018-08-31T11:35:00.452Z,99.90
2018-08-31T11:37:28.760Z,99.90
2018-08-31T11:39:57.187Z,99.90
2018-08-31T11:42:25.559Z,99.90
2018-08-31T11:44:53.957Z,99.90
2018-08-31T11:47:22.320Z,99.90
2018-08-31T11:49:50.673Z,99.90
2018-08-31T11:52:19.075Z,99.90
2018-08-31T11:54:47.403Z,99.90
2018-08-31T11:57:15.793Z,99.90
2018-08-31T11:59:44.225Z,99.90
2018-08-31T12:02:13.046Z,99.90
2018-08-31T12:04:41.392Z,99.90
2018-08-31T12:07:09.676Z,99.90
2018-08-31T12:09:38.013Z,99.90
2018-08-31T12:12:06.372Z,99.90
2018-08-31T12:14:34.756Z,99.90
2018-08-31T12:17:06.099Z,99.90
2018-08-31T12:19:34.640Z,99.90
2018-08-31T12:22:02.942Z,99.90
2018-08-31T12:24:31.316Z,99.90
2018-08-31T12:26:59.614Z,99.90
2018-08-31T12:29:27.948Z,99.90
2018-08-31T12:31:56.444Z,99.90
2018-08-31T12:34:24.757Z,99.90
2018-08-31T12:36:53.156Z,99.90
2018-08-31T12:39:21.506Z,99.90
2018-08-31T12:41:49.959Z,99.90
2018-08-31T12:44:18.295Z,99.90
2018-08-31T12:46:46.617Z,99.90
2018-08-31T12:49:15.061Z,99.90
2018-08-31T12:51:43.368Z,99.90
2018-08-31T12:54:11.767Z,99.90
2018-08-31T12:56:40.155Z,99.90
2018-08-31T12:59:08.469Z,99.90
2018-08-31T13:01:36.779Z,99.90
2018-08-31T13:04:05.454Z,99.90
2018-08-31T13:06:33.776Z,99.90
2018-08-31T13:09:02.234Z,99.90
2018-08-31T13:11:30.698Z,99.90
2018-08-31T13:13:59.044Z,99.90
2018-08-31T13:16:27.459Z,99.90
2018-08-31T13:18:55.784Z,99.90
2018-08-31T13:21:24.146Z,99.90
2018-08-31T13:23:52.471Z,99.90
2018-08-31T13:26:21.444Z,99.90
2018-08-31T13:28:49.888Z,99.90
2018-08-31T13:31:18.576Z,99.90
2018-08-31T13:33:46.904Z,99.90
2018-08-31T13:36:15.248Z,99.90
2018-08-31T13:38:43.593Z,99.90
2018-08-31T13:41:11.989Z,99.90
2018-08-31T13:43:40.436Z,99.90
2018-08-31T13:46:08.792Z,99.90
2018-08-31T13:48:37.099Z,99.90
2018-08-31T13:51:05.421Z,99.90
2018-08-31T13:53:33.759Z,99.90
2018-08-31T13:56:02.091Z,99.90
2018-08-31T13:58:30.445Z,99.90
2018-08-31T14:00:58.759Z,99.90
2018-08-31T14:03:27.042Z,99.90
2018-08-31T14:05:55.404Z,99.90
2018-08-31T14:08:23.700Z,99.90
2018-08-31T14:10:52.148Z,99.90
2018-08-31T14:13:20.465Z,99.90
2018-08-31T14:15:48.782Z,99.90
2018-08-31T14:18:17.062Z,99.90
2018-08-31T14:20:45.394Z,99.90
2018-08-31T14:23:13.672Z,99.90
2018-08-31T14:25:41.971Z,99.90
2018-08-31T14:28:10.312Z,99.90
2018-08-31T14:30:38.680Z,99.90
2018-08-31T14:33:07.183Z,99.90
2018-08-31T14:35:35.479Z,99.90
2018-08-31T14:38:03.815Z,99.90
2018-08-31T14:40:32.135Z,99.90
2018-08-31T14:43:00.457Z,99.90
2018-08-31T14:45:28.740Z,99.40
2018-08-31T14:47:57.066Z,98.80
2018-08-31T14:50:25.385Z,99.90
2018-08-31T14:52:53.727Z,98.90
2018-08-31T14:55:22.038Z,99.30
2018-08-31T14:57:50.422Z,99.50
2018-08-31T15:00:18.707Z,99.90
2018-08-31T15:02:47.122Z,99.90
2018-08-31T15:05:15.416Z,99.90
2018-08-31T15:07:43.780Z,99.90
2018-08-31T15:10:13.912Z,99.10
2018-08-31T15:12:42.898Z,97.80
2018-08-31T15:15:11.579Z,96.50
2018-08-31T15:17:40.098Z,95.40
2018-08-31T15:20:08.407Z,95.00
2018-08-31T15:22:36.761Z,94.70
2018-08-31T15:25:05.255Z,94.60
2018-08-31T15:27:33.579Z,95.50
2018-08-31T15:30:01.949Z,95.90
2018-08-31T15:32:30.268Z,95.40
2018-08-31T15:34:58.625Z,96.00
2018-08-31T15:37:27.028Z,96.50
2018-08-31T15:39:55.385Z,95.70
2018-08-31T15:42:23.834Z,94.60
2018-08-31T15:44:52.040Z,93.50
2018-08-31T15:47:20.377Z,91.30
2018-08-31T15:49:48.684Z,91.00
2018-08-31T15:52:17.299Z,90.90
2018-08-31T15:54:45.578Z,91.80
2018-08-31T15:57:13.870Z,91.90
2018-08-31T15:59:42.167Z,91.60
2018-08-31T16:02:10.498Z,91.80
2018-08-31T16:04:38.811Z,92.20
2018-08-31T16:07:07.172Z,92.20
2018-08-31T16:09:35.494Z,92.10
2018-08-31T16:12:03.788Z,92.50
2018-08-31T16:14:32.175Z,92.60
2018-08-31T16:17:00.842Z,94.20
2018-08-31T16:19:29.234Z,93.60
2018-08-31T16:21:57.551Z,93.50
2018-08-31T16:24:25.905Z,93.60
2018-08-31T16:26:54.346Z,94.30
2018-08-31T16:29:22.671Z,93.70
2018-08-31T16:31:51.024Z,93.80
2018-08-31T16:34:19.377Z,94.00
2018-08-31T16:36:47.715Z,94.20
2018-08-31T16:39:16.049Z,94.80
2018-08-31T16:41:44.359Z,95.00
2018-08-31T16:44:12.695Z,94.80
2018-08-31T16:46:40.987Z,94.90
2018-08-31T16:49:09.492Z,94.40
2018-08-31T16:51:37.771Z,95.10
2018-08-31T16:54:06.176Z,94.80
2018-08-31T16:56:34.583Z,95.30
2018-08-31T16:59:02.976Z,95.20
2018-08-31T17:01:31.273Z,95.80
2018-08-31T17:03:59.584Z,94.90
2018-08-31T17:06:27.892Z,95.30
2018-08-31T17:08:56.239Z,95.20
2018-08-31T17:11:24.535Z,96.00
2018-08-31T17:13:52.861Z,96.20
2018-08-31T17:16:21.406Z,96.20
2018-08-31T17:18:49.814Z,96.40
2018-08-31T17:21:18.274Z,97.00
2018-08-31T17:23:46.735Z,97.70
2018-08-31T17:26:20.616Z,97.60
2018-08-31T17:28:54.307Z,97.90
2018-08-31T17:31:27.911Z,98.30
2018-08-31T17:34:01.587Z,98.80
2018-08-31T17:36:35.392Z,99.10
2018-08-31T17:39:05.407Z,99.30
2018-08-31T17:41:33.719Z,99.50
2018-08-31T17:44:02.044Z,99.70
2018-08-31T17:46:30.475Z,99.90
2018-08-31T17:48:58.746Z,99.90
2018-08-31T17:51:27.124Z,99.90
2018-08-31T17:53:55.510Z,99.90
2018-08-31T17:56:23.977Z,99.90
2018-08-31T17:58:52.262Z,99.90
2018-08-31T18:01:20.580Z,99.90
2018-08-31T18:03:48.934Z,99.90
2018-08-31T18:06:17.228Z,99.90
2018-08-31T18:08:45.634Z,99.90
2018-08-31T18:11:14.026Z,99.90
2018-08-31T18:13:42.347Z,99.90
2018-08-31T18:16:10.694Z,99.90
2018-08-31T18:18:39.137Z,99.90
2018-08-31T18:21:07.530Z,99.90
2018-08-31T18:23:35.977Z,99.90
2018-08-31T18:26:04.598Z,99.90
2018-08-31T18:28:33.009Z,99.90
2018-08-31T18:31:01.327Z,99.90
2018-08-31T18:33:30.067Z,99.90
2018-08-31T18:35:58.471Z,99.90
2018-08-31T18:38:26.803Z,99.90
2018-08-31T18:40:55.148Z,99.90
2018-08-31T18:43:23.703Z,99.90
2018-08-31T18:45:52.051Z,99.90
2018-08-31T18:48:21.020Z,99.90
2018-08-31T18:50:49.318Z,99.90
2018-08-31T18:53:18.823Z,99.90
2018-08-31T18:55:47.131Z,99.90
2018-08-31T18:58:15.447Z,99.90
2018-08-31T19:00:44.842Z,99.90
2018-08-31T19:03:13.326Z,99.90
2018-08-31T19:05:42.641Z,99.90
2018-08-31T19:08:10.974Z,99.90
2018-08-31T19:10:39.336Z,99.90
2018-08-31T19:13:07.887Z,99.90
2018-08-31T19:15:36.217Z,99.90
2018-08-31T19:18:04.682Z,99.90
2018-08-31T19:20:33.151Z,99.90
2018-08-31T19:23:02.094Z,99.90
2018-08-31T19:25:30.410Z,99.90
2018-08-31T19:27:58.705Z,99.90
2018-08-31T19:30:27.033Z,99.90
2018-08-31T19:32:55.716Z,99.90
2018-08-31T19:35:24.062Z,99.90
2018-08-31T19:37:52.354Z,99.90
2018-08-31T19:40:20.694Z,99.90
2018-08-31T19:42:49.216Z,99.90
2018-08-31T19:45:17.567Z,99.90
2018-08-31T19:47:45.865Z,99.90
2018-08-31T19:50:14.268Z,99.90
2018-08-31T19:52:42.578Z,99.90
2018-08-31T19:55:10.879Z,99.90
2018-08-31T19:57:39.174Z,99.90
2018-08-31T20:00:07.652Z,99.90
2018-08-31T20:02:36.109Z,99.90
2018-08-31T20:05:04.436Z,99.90
2018-08-31T20:07:33.088Z,99.90
2018-08-31T20:10:01.455Z,99.90
2018-08-31T20:12:29.810Z,99.90
2018-08-31T20:14:58.143Z,99.90
2018-08-31T20:17:26.500Z,99.90
2018-08-31T20:19:54.856Z,99.90
2018-08-31T20:22:23.185Z,99.90
2018-08-31T20:24:51.609Z,99.90
2018-08-31T20:27:19.940Z,99.90
2018-08-31T20:29:48.264Z,99.90
2018-08-31T20:32:16.679Z,99.90
2018-08-31T20:34:45.007Z,99.90
2018-08-31T20:37:13.328Z,99.90
2018-08-31T20:39:41.622Z,99.90
2018-08-31T20:42:09.948Z,99.90
2018-08-31T20:44:38.259Z,99.90
2018-08-31T20:47:06.589Z,99.90
2018-08-31T20:49:34.887Z,99.90
2018-08-31T20:52:03.183Z,99.90
2018-08-31T20:54:31.479Z,99.90
2018-08-31T20:56:59.793Z,99.90
2018-08-31T20:59:28.121Z,99.90
2018-08-31T21:01:56.450Z,99.90
2018-08-31T21:04:24.808Z,99.90
2018-08-31T21:06:53.143Z,99.90
2018-08-31T21:09:21.426Z,99.90
2018-08-31T21:11:49.755Z,99.90
2018-08-31T21:14:18.075Z,99.90
2018-08-31T21:16:46.437Z,99.90
2018-08-31T21:19:14.778Z,99.90
2018-08-31T21:21:43.667Z,99.90
2018-08-31T21:24:12.022Z,99.90
2018-08-31T21:26:40.368Z,99.90
2018-08-31T21:29:08.804Z,99.90
2018-08-31T21:31:37.115Z,99.90
2018-08-31T21:34:05.453Z,99.90
2018-08-31T21:36:33.781Z,99.90
2018-08-31T21:39:02.099Z,99.90
2018-08-31T21:41:30.395Z,99.90
2018-08-31T21:43:58.694Z,99.90
2018-08-31T21:46:27.028Z,99.90
2018-08-31T21:48:55.418Z,99.90
2018-08-31T21:51:23.750Z,99.90
2018-08-31T21:53:52.042Z,99.90
2018-08-31T21:56:20.370Z,99.90
2018-08-31T21:58:48.717Z,99.90
2018-08-31T22:01:22.415Z,99.90
2018-08-31T22:03:50.707Z,99.90
2018-08-31T22:06:19.070Z,99.90
2018-08-31T22:08:47.777Z,99.90
2018-08-31T22:11:16.102Z,99.90
2018-08-31T22:13:44.435Z,99.90
2018-08-31T22:16:12.753Z,99.90
2018-08-31T22:18:41.094Z,99.90
2018-08-31T22:21:09.448Z,99.90
2018-08-31T22:23:37.825Z,99.90
2018-08-31T22:26:07.231Z,99.90
2018-08-31T22:28:35.960Z,99.90
2018-08-31T22:31:04.324Z,99.90
2018-08-31T22:33:32.609Z,99.90
2018-08-31T22:36:00.926Z,99.90
2018-08-31T22:38:29.283Z,99.90
2018-08-31T22:40:57.620Z,99.90
2018-08-31T22:43:31.516Z,99.90
2018-08-31T22:45:59.798Z,99.90
2018-08-31T22:48:28.117Z,99.90
2018-08-31T22:50:56.418Z,99.90
2018-08-31T22:53:24.728Z,99.90
2018-08-31T22:55:53.028Z,99.90
2018-08-31T22:58:21.369Z,99.90
2018-08-31T23:00:49.690Z,99.90
2018-08-31T23:03:18.004Z,99.90
2018-08-31T23:05:46.314Z,99.90
2018-08-31T23:08:14.672Z,99.90
2018-08-31T23:10:42.956Z,99.90
2018-08-31T23:13:11.428Z,99.90
2018-08-31T23:15:39.778Z,99.90
2018-08-31T23:18:08.147Z,99.90
2018-08-31T23:20:40.179Z,99.90
2018-08-31T23:23:17.786Z,99.90
2018-08-31T23:25:49.845Z,99.90
2018-08-31T23:28:18.943Z,99.90
2018-08-31T23:30:47.264Z,99.90
2018-08-31T23:33:15.830Z,99.90
2018-08-31T23:35:44.414Z,99.90
2018-08-31T23:38:12.979Z,99.90
2018-08-31T23:40:41.309Z,99.90
2018-08-31T23:43:09.625Z,99.90
2018-08-31T23:45:37.933Z,99.90
2018-08-31T23:48:06.279Z,99.90
2018-08-31T23:50:34.582Z,99.90
2018-08-31T23:53:03.233Z,99.90
2018-08-31T23:55:31.523Z,99.90
2018-08-31T23:57:59.860Z,99.90
